createdAt,value
2019-05-07T00:00:03.334Z,12.93
2019-05-07T00:02:52.544Z,13.85
2019-05-07T00:05:42.618Z,12.43
2019-05-07T00:08:22.956Z,12.70
2019-05-07T00:11:12.722Z,12.35
2019-05-07T00:14:03.027Z,11.60
2019-05-07T00:17:02.277Z,11.95
2019-05-07T00:19:52.442Z,11.97
2019-05-07T00:22:41.972Z,11.15
2019-05-07T00:25:29.912Z,10.60
2019-05-07T00:28:18.081Z,9.48
2019-05-07T00:31:06.272Z,10.58
2019-05-07T00:33:54.311Z,10.53
2019-05-07T00:40:02.692Z,9.68
2019-05-07T00:43:11.897Z,10.05
2019-05-07T00:46:19.041Z,9.65
2019-05-07T00:49:07.201Z,10.18
2019-05-07T00:51:55.336Z,10.98
2019-05-07T00:54:43.544Z,10.78
2019-05-07T00:57:32.366Z,11.43
2019-05-07T01:00:22.304Z,11.30
2019-05-07T01:03:12.898Z,11.22
2019-05-07T01:08:59.496Z,10.50
2019-05-07T01:11:47.688Z,11.30
2019-05-07T01:14:35.886Z,11.35
2019-05-07T01:17:24.020Z,10.80
2019-05-07T01:20:12.613Z,11.70
2019-05-07T01:25:56.783Z,11.63
2019-05-07T01:29:03.896Z,12.25
2019-05-07T01:32:12.688Z,10.90
2019-05-07T01:35:22.308Z,10.95
2019-05-07T01:38:12.221Z,11.15
2019-05-07T01:40:59.811Z,11.08
2019-05-07T01:43:47.795Z,11.15
2019-05-07T01:46:35.878Z,11.60
2019-05-07T01:52:17.576Z,11.28
2019-05-07T01:55:05.616Z,11.43
2019-05-07T01:57:53.643Z,10.32
2019-05-07T02:00:42.480Z,11.73
2019-05-07T02:03:52.675Z,12.00
2019-05-07T02:06:59.451Z,10.95
2019-05-07T02:09:44.889Z,11.00
2019-05-07T02:12:28.936Z,11.33
2019-05-07T02:15:17.006Z,10.63
2019-05-07T02:18:05.234Z,12.25
2019-05-07T02:20:53.389Z,12.90
2019-05-07T02:23:42.611Z,12.45
2019-05-07T02:26:32.198Z,11.73
2019-05-07T02:29:22.812Z,12.82
2019-05-07T02:32:13.235Z,12.88
2019-05-07T02:35:04.000Z,12.70
2019-05-07T02:38:09.649Z,12.60
2019-05-07T02:44:13.384Z,12.35
2019-05-07T02:47:19.613Z,12.45
2019-05-07T02:53:26.959Z,13.50
2019-05-07T02:56:15.302Z,13.68
2019-05-07T02:59:04.227Z,13.18
2019-05-07T03:01:53.881Z,13.65
2019-05-07T03:04:43.527Z,13.72
2019-05-07T03:07:25.368Z,13.68
2019-05-07T03:10:04.330Z,12.30
2019-05-07T03:12:53.652Z,13.25
2019-05-07T03:15:43.542Z,12.90
2019-05-07T03:18:33.502Z,11.90
2019-05-07T03:21:23.586Z,11.78
2019-05-07T03:27:15.599Z,11.80
2019-05-07T03:30:26.197Z,11.50
2019-05-07T03:36:16.901Z,12.40
2019-05-07T03:39:03.582Z,11.80
2019-05-07T03:41:53.090Z,12.05
2019-05-07T03:47:46.625Z,13.08
2019-05-07T03:50:34.849Z,12.85
2019-05-07T03:53:23.541Z,11.87
2019-05-07T03:56:13.291Z,11.90
2019-05-07T03:59:03.617Z,11.22
2019-05-07T04:01:53.793Z,12.00
2019-05-07T04:04:43.344Z,11.57
2019-05-07T04:07:23.595Z,11.97
2019-05-07T04:10:14.948Z,12.03
2019-05-07T04:13:04.548Z,11.48
2019-05-07T04:15:52.613Z,10.93
2019-05-07T04:18:43.829Z,11.95
2019-05-07T04:21:34.235Z,11.10
2019-05-07T04:28:03.794Z,24.87
2019-05-07T04:37:03.265Z,9.98
2019-05-07T04:40:09.716Z,10.13
2019-05-07T04:42:58.093Z,10.15
2019-05-07T04:45:46.464Z,10.55
2019-05-07T04:48:34.764Z,9.80
2019-05-07T04:54:37.235Z,8.88
2019-05-07T04:57:25.638Z,10.48
2019-05-07T05:00:15.812Z,9.60
2019-05-07T05:06:07.447Z,9.55
2019-05-07T05:08:46.769Z,9.45
2019-05-07T05:11:34.866Z,10.93
2019-05-07T05:14:23.099Z,10.03
2019-05-07T05:17:12.988Z,19.60
2019-05-07T05:19:43.903Z,9.48
2019-05-07T05:22:34.431Z,9.25
2019-05-07T05:25:28.582Z,10.20
2019-05-07T05:27:57.484Z,10.00
2019-05-07T05:30:36.500Z,9.40
2019-05-07T05:33:05.366Z,9.63
2019-05-07T05:35:34.403Z,10.48
2019-05-07T05:38:03.462Z,9.98
2019-05-07T05:40:32.355Z,9.35
2019-05-07T05:43:12.599Z,9.73
2019-05-07T05:45:42.789Z,9.48
2019-05-07T05:48:13.621Z,9.25
2019-05-07T05:50:49.432Z,10.03
2019-05-07T05:53:36.131Z,10.80
2019-05-07T05:56:11.457Z,9.80
2019-05-07T05:58:59.665Z,8.83
2019-05-07T06:01:46.612Z,9.53
2019-05-07T06:04:26.253Z,10.08
2019-05-07T06:07:11.237Z,9.38
2019-05-07T06:10:02.516Z,8.68
2019-05-07T06:12:43.167Z,9.85
2019-05-07T06:15:25.203Z,8.83
2019-05-07T06:18:17.975Z,9.18
2019-05-07T06:20:53.399Z,9.43
2019-05-07T06:23:33.012Z,9.63
2019-05-07T06:26:05.184Z,10.28
2019-05-07T06:28:34.302Z,11.70
2019-05-07T06:31:03.328Z,12.70
2019-05-07T06:33:32.499Z,14.13
2019-05-07T06:36:02.819Z,15.60
2019-05-07T06:38:36.219Z,13.83
2019-05-07T06:41:42.567Z,11.57
2019-05-07T06:44:16.326Z,11.35
2019-05-07T06:46:45.101Z,10.82
2019-05-07T06:49:13.884Z,10.53
2019-05-07T06:51:42.780Z,10.25
2019-05-07T06:54:12.978Z,10.03
2019-05-07T06:56:42.200Z,9.53
2019-05-07T06:59:32.563Z,9.88
2019-05-07T07:02:17.752Z,9.78
2019-05-07T07:04:52.009Z,9.63
2019-05-07T07:07:37.241Z,8.50
2019-05-07T07:10:24.716Z,7.25
2019-05-07T07:12:53.638Z,7.28
2019-05-07T07:15:23.262Z,6.92
2019-05-07T07:17:52.611Z,7.90
2019-05-07T07:20:22.632Z,7.10
2019-05-07T07:22:52.059Z,7.47
2019-05-07T07:25:22.947Z,6.75
2019-05-07T07:27:52.107Z,6.67
2019-05-07T07:30:34.032Z,7.83
2019-05-07T07:33:03.873Z,6.58
2019-05-07T07:35:32.854Z,8.08
2019-05-07T07:38:22.305Z,6.35
2019-05-07T07:40:57.727Z,7.85
2019-05-07T07:43:26.640Z,6.15
2019-05-07T07:45:55.428Z,5.42
2019-05-07T07:48:25.576Z,6.90
2019-05-07T07:50:55.054Z,5.92
2019-05-07T07:53:24.142Z,5.90
2019-05-07T07:56:12.109Z,6.50
2019-05-07T07:59:01.988Z,4.58
2019-05-07T08:01:42.157Z,5.12
2019-05-07T08:04:12.281Z,5.62
2019-05-07T08:06:41.998Z,5.58
2019-05-07T08:09:12.998Z,5.67
2019-05-07T08:11:42.543Z,5.65
2019-05-07T08:14:12.620Z,5.17
2019-05-07T08:16:43.009Z,5.00
2019-05-07T08:19:21.547Z,4.70
2019-05-07T08:21:42.662Z,4.42
2019-05-07T08:24:12.258Z,4.55
2019-05-07T08:26:42.837Z,4.90
2019-05-07T08:29:12.135Z,4.97
2019-05-07T08:32:02.784Z,4.78
2019-05-07T08:34:42.795Z,5.30
2019-05-07T08:37:12.114Z,4.58
2019-05-07T08:39:42.863Z,4.03
2019-05-07T08:42:12.234Z,4.50
2019-05-07T08:44:53.252Z,4.67
2019-05-07T08:47:34.853Z,5.28
2019-05-07T08:50:04.118Z,4.60
2019-05-07T08:52:32.941Z,4.25
2019-05-07T08:55:02.284Z,4.35
2019-05-07T08:57:31.843Z,4.15
2019-05-07T09:00:02.263Z,4.50
2019-05-07T09:02:32.586Z,4.65
2019-05-07T09:05:02.939Z,4.87
2019-05-07T09:07:32.278Z,4.45
2019-05-07T09:10:02.493Z,4.37
2019-05-07T09:12:31.990Z,5.10
2019-05-07T09:15:02.210Z,3.80
2019-05-07T09:17:31.892Z,3.80
2019-05-07T09:20:02.590Z,4.17
2019-05-07T09:22:32.340Z,4.60
2019-05-07T09:25:03.093Z,4.90
2019-05-07T09:27:42.428Z,4.30
2019-05-07T09:30:38.942Z,4.45
2019-05-07T09:33:15.802Z,4.58
2019-05-07T09:35:49.580Z,3.42
2019-05-07T09:38:18.471Z,4.10
2019-05-07T09:40:47.275Z,3.67
2019-05-07T09:43:16.177Z,3.80
2019-05-07T09:45:45.025Z,4.10
2019-05-07T09:48:13.890Z,4.15
2019-05-07T09:50:43.282Z,3.90
2019-05-07T09:53:12.802Z,4.15
2019-05-07T09:55:42.592Z,3.50
2019-05-07T09:58:12.508Z,3.22
2019-05-07T10:00:42.496Z,3.40
2019-05-07T10:03:12.661Z,3.50
2019-05-07T10:05:42.700Z,4.10
2019-05-07T10:08:12.906Z,4.50
2019-05-07T10:10:43.108Z,3.60
2019-05-07T10:13:32.999Z,4.00
2019-05-07T10:16:04.312Z,3.80
2019-05-07T10:18:32.860Z,3.72
2019-05-07T10:21:02.506Z,4.00
2019-05-07T10:23:31.661Z,3.40
2019-05-07T10:26:01.815Z,3.30
2019-05-07T10:28:32.034Z,3.30
2019-05-07T10:31:01.213Z,3.50
2019-05-07T10:33:31.987Z,3.33
2019-05-07T10:36:02.124Z,3.58
2019-05-07T10:38:31.269Z,3.15
2019-05-07T10:41:02.695Z,3.47
2019-05-07T10:43:32.714Z,3.27
2019-05-07T10:46:27.274Z,3.42
2019-05-07T10:49:24.678Z,24.92
2019-05-07T10:51:53.626Z,3.60
2019-05-07T10:54:22.546Z,6.45
2019-05-07T10:56:52.431Z,9.38
2019-05-07T10:59:22.517Z,4.22
2019-05-07T11:02:09.331Z,3.72
2019-05-07T11:04:42.628Z,4.00
2019-05-07T11:07:08.741Z,4.12
2019-05-07T11:09:37.610Z,3.75
2019-05-07T11:12:06.386Z,3.77
2019-05-07T11:14:35.253Z,3.72
2019-05-07T11:17:26.392Z,4.45
2019-05-07T11:19:55.288Z,3.70
2019-05-07T11:22:24.163Z,4.12
2019-05-07T11:24:53.164Z,3.87
2019-05-07T11:27:22.547Z,3.72
2019-05-07T11:29:51.598Z,3.60
2019-05-07T11:32:21.628Z,3.55
2019-05-07T11:34:52.810Z,3.65
2019-05-07T11:37:22.584Z,3.20
2019-05-07T11:39:52.351Z,3.75
2019-05-07T11:42:42.641Z,3.90
2019-05-07T11:45:23.369Z,3.90
2019-05-07T11:47:52.269Z,3.92
2019-05-07T11:50:42.329Z,4.10
2019-05-07T11:53:11.987Z,3.90
2019-05-07T11:55:42.049Z,4.28
2019-05-07T11:58:12.801Z,23.67
2019-05-07T12:00:51.102Z,17.87
2019-05-07T12:03:21.993Z,8.33
2019-05-07T12:05:52.527Z,4.25
2019-05-07T12:08:23.725Z,24.20
2019-05-07T12:10:51.978Z,4.42
2019-05-07T12:13:21.763Z,4.95
2019-05-07T12:15:52.193Z,4.80
2019-05-07T12:18:22.724Z,3.92
2019-05-07T12:20:53.890Z,5.10
2019-05-07T12:23:22.731Z,5.37
2019-05-07T12:25:52.851Z,5.05
2019-05-07T12:28:22.544Z,4.87
2019-05-07T12:31:12.154Z,5.42
2019-05-07T12:33:52.042Z,5.05
2019-05-07T12:36:22.796Z,4.83
2019-05-07T12:38:53.281Z,5.08
2019-05-07T12:41:34.839Z,5.03
2019-05-07T12:44:07.284Z,5.67
2019-05-07T12:46:36.565Z,5.58
2019-05-07T12:49:05.902Z,5.22
2019-05-07T12:51:42.709Z,5.33
2019-05-07T12:54:43.126Z,6.00
2019-05-07T12:57:12.021Z,5.50
2019-05-07T12:59:42.618Z,6.12
2019-05-07T13:02:37.347Z,6.70
2019-05-07T13:04:53.926Z,6.78
2019-05-07T13:07:41.807Z,5.90
2019-05-07T13:10:11.113Z,6.60
2019-05-07T13:12:41.912Z,7.03
2019-05-07T13:15:21.957Z,7.35
2019-05-07T13:17:41.701Z,6.58
2019-05-07T13:20:12.152Z,7.67
2019-05-07T13:22:42.689Z,7.58
2019-05-07T13:25:11.880Z,7.47
2019-05-07T13:27:42.714Z,8.48
2019-05-07T13:30:12.514Z,6.87
2019-05-07T13:32:41.925Z,7.33
2019-05-07T13:35:12.166Z,7.70
2019-05-07T13:37:44.765Z,7.12
2019-05-07T13:40:34.203Z,7.17
2019-05-07T13:43:08.499Z,7.45
2019-05-07T13:45:44.887Z,8.05
2019-05-07T13:48:22.572Z,7.65
2019-05-07T13:50:51.658Z,7.12
2019-05-07T13:53:22.690Z,6.75
2019-05-07T13:55:51.253Z,7.03
2019-05-07T13:58:20.285Z,8.08
2019-05-07T14:01:05.639Z,7.28
2019-05-07T14:03:34.608Z,7.40
2019-05-07T14:06:04.565Z,7.85
2019-05-07T14:08:35.579Z,8.25
2019-05-07T14:11:04.467Z,8.63
2019-05-07T14:13:33.413Z,8.00
2019-05-07T14:16:09.259Z,8.50
2019-05-07T14:18:38.874Z,9.05
2019-05-07T14:21:07.791Z,8.28
2019-05-07T14:23:36.556Z,8.28
2019-05-07T14:26:05.390Z,9.50
2019-05-07T14:28:34.234Z,8.48
2019-05-07T14:31:03.044Z,8.30
2019-05-07T14:33:44.324Z,9.55
2019-05-07T14:36:16.850Z,9.05
2019-05-07T14:38:47.870Z,9.53
2019-05-07T14:41:16.639Z,24.07
2019-05-07T14:43:53.705Z,15.50
2019-05-07T14:46:22.459Z,9.60
2019-05-07T14:48:52.118Z,10.88
2019-05-07T14:51:22.037Z,10.75
2019-05-07T14:53:51.002Z,12.07
2019-05-07T14:56:19.791Z,13.38
2019-05-07T14:58:48.518Z,13.03
2019-05-07T15:01:17.297Z,13.35
2019-05-07T15:03:46.120Z,14.03
2019-05-07T15:06:14.862Z,14.45
2019-05-07T15:08:43.800Z,17.23
2019-05-07T15:11:12.892Z,14.87
2019-05-07T15:13:42.755Z,13.65
2019-05-07T15:16:11.948Z,14.80
2019-05-07T15:18:55.382Z,13.25
2019-05-07T15:21:24.177Z,15.20
2019-05-07T15:23:53.648Z,13.43
2019-05-07T15:26:22.473Z,12.85
2019-05-07T15:28:56.626Z,12.35
2019-05-07T15:31:43.095Z,12.03
2019-05-07T15:34:12.386Z,11.33
2019-05-07T15:36:42.349Z,10.53
2019-05-07T15:39:13.301Z,10.75
2019-05-07T15:41:42.473Z,10.58
2019-05-07T15:44:11.948Z,10.65
2019-05-07T15:46:42.820Z,10.32
2019-05-07T15:49:12.503Z,10.05
2019-05-07T15:51:41.996Z,10.28
2019-05-07T15:54:12.795Z,10.72
2019-05-07T15:56:41.657Z,10.48
2019-05-07T15:59:13.140Z,10.03
2019-05-07T16:01:42.178Z,10.68
2019-05-07T16:04:21.700Z,9.88
2019-05-07T16:06:42.505Z,10.00
2019-05-07T16:09:12.936Z,8.95
2019-05-07T16:11:43.072Z,10.70
2019-05-07T16:14:26.394Z,9.63
2019-05-07T16:16:55.629Z,9.75
2019-05-07T16:19:27.583Z,10.03
2019-05-07T16:21:58.466Z,9.95
2019-05-07T16:24:27.376Z,9.83
2019-05-07T16:26:56.086Z,10.20
2019-05-07T16:29:25.242Z,9.98
2019-05-07T16:31:53.950Z,9.88
2019-05-07T16:34:24.647Z,10.20
2019-05-07T16:36:53.278Z,10.05
2019-05-07T16:39:25.130Z,9.58
2019-05-07T16:41:53.849Z,9.90
2019-05-07T16:44:22.656Z,9.18
2019-05-07T16:46:53.434Z,9.98
2019-05-07T16:49:22.411Z,9.33
2019-05-07T16:51:54.337Z,9.65
2019-05-07T16:54:23.055Z,9.25
2019-05-07T16:57:12.035Z,11.70
2019-05-07T16:59:42.576Z,10.50
2019-05-07T17:02:16.462Z,9.88
2019-05-07T17:05:05.298Z,10.90
2019-05-07T17:07:36.094Z,9.98
2019-05-07T17:10:05.463Z,9.98
2019-05-07T17:12:34.365Z,10.58
2019-05-07T17:15:03.256Z,10.30
2019-05-07T17:17:32.083Z,9.70
2019-05-07T17:20:21.969Z,10.18
2019-05-07T17:22:54.541Z,9.73
2019-05-07T17:25:43.067Z,10.20
2019-05-07T17:28:12.710Z,10.13
2019-05-07T17:31:03.085Z,10.75
2019-05-07T17:33:32.898Z,9.98
2019-05-07T17:36:02.503Z,10.58
2019-05-07T17:42:14.588Z,10.40
2019-05-07T17:45:05.481Z,10.75
2019-05-07T17:48:32.284Z,10.08
2019-05-07T17:51:42.163Z,10.63
2019-05-07T17:54:31.885Z,10.80
2019-05-07T17:57:23.831Z,10.70
2019-05-07T18:03:38.141Z,10.93
2019-05-07T18:06:29.303Z,11.15
2019-05-07T18:09:17.474Z,12.70
2019-05-07T18:12:27.381Z,11.65
2019-05-07T18:15:06.469Z,12.28
2019-05-07T18:18:13.598Z,12.10
2019-05-07T18:21:22.393Z,11.33
2019-05-07T18:30:22.187Z,12.33
2019-05-07T18:33:29.716Z,12.78
2019-05-07T18:36:17.974Z,12.65
2019-05-07T18:39:06.479Z,12.73
2019-05-07T18:41:54.620Z,13.20
2019-05-07T18:44:42.901Z,12.45
2019-05-07T18:47:33.102Z,14.20
2019-05-07T18:50:22.619Z,14.00
2019-05-07T18:52:52.344Z,12.58
2019-05-07T18:55:42.422Z,14.38
2019-05-07T18:58:32.055Z,13.58
2019-05-07T19:04:15.466Z,14.25
2019-05-07T19:07:06.313Z,14.07
2019-05-07T19:09:35.408Z,13.70
2019-05-07T19:15:28.127Z,15.25
2019-05-07T19:18:07.509Z,15.60
2019-05-07T19:20:55.811Z,14.58
2019-05-07T19:23:44.196Z,14.70
2019-05-07T19:26:25.068Z,15.55
2019-05-07T19:29:03.302Z,16.12
2019-05-07T19:35:09.563Z,16.65
2019-05-07T19:37:58.342Z,14.90
2019-05-07T19:40:52.658Z,16.65
2019-05-07T19:46:56.455Z,15.48
2019-05-07T19:53:02.969Z,17.87
2019-05-07T19:56:10.170Z,16.77
2019-05-07T19:58:58.441Z,17.32
2019-05-07T20:05:16.305Z,16.27
2019-05-07T20:08:04.961Z,17.95
2019-05-07T20:14:02.031Z,17.50
2019-05-07T20:16:43.335Z,17.00
2019-05-07T20:19:24.359Z,17.55
2019-05-07T20:22:05.792Z,16.95
2019-05-07T20:24:34.746Z,17.20
2019-05-07T20:27:23.291Z,17.35
2019-05-07T20:29:53.850Z,16.62
2019-05-07T20:32:22.812Z,17.77
2019-05-07T20:34:52.055Z,16.82
2019-05-07T20:37:41.984Z,17.95
2019-05-07T20:40:32.016Z,16.77
2019-05-07T20:43:23.162Z,18.05
2019-05-07T20:46:12.772Z,18.90
2019-05-07T20:49:22.273Z,18.07
2019-05-07T20:55:46.472Z,18.27
2019-05-07T20:58:34.794Z,19.00
2019-05-07T21:01:22.861Z,18.90
2019-05-07T21:04:12.875Z,18.32
2019-05-07T21:07:02.151Z,18.12
2019-05-07T21:09:52.838Z,20.30
2019-05-07T21:12:42.302Z,19.37
2019-05-07T21:15:22.809Z,18.55
2019-05-07T21:18:12.319Z,18.80
2019-05-07T21:21:02.107Z,17.77
2019-05-07T21:23:52.538Z,19.60
2019-05-07T21:26:42.267Z,18.15
2019-05-07T21:29:45.337Z,20.77
2019-05-07T21:32:23.150Z,18.87
2019-05-07T21:35:12.094Z,19.65
2019-05-07T21:38:00.381Z,19.48
2019-05-07T21:40:48.417Z,19.82
2019-05-07T21:43:36.690Z,19.50
2019-05-07T21:46:24.761Z,18.52
2019-05-07T21:49:12.893Z,20.35
2019-05-07T21:52:01.968Z,18.67
2019-05-07T21:55:09.827Z,19.32
2019-05-07T21:58:16.953Z,18.57
2019-05-07T22:01:24.000Z,18.90
2019-05-07T22:07:06.993Z,19.23
2019-05-07T22:12:48.293Z,19.62
2019-05-07T22:15:27.202Z,20.40
2019-05-07T22:18:15.499Z,20.55
2019-05-07T22:21:03.506Z,20.08
2019-05-07T22:23:52.228Z,25.95
2019-05-07T22:26:41.998Z,30.43
2019-05-07T22:29:30.965Z,24.23
2019-05-07T22:35:24.789Z,20.72
2019-05-07T22:38:12.780Z,20.08
2019-05-07T22:44:08.035Z,20.15
2019-05-07T22:49:54.261Z,20.95
2019-05-07T22:52:42.309Z,21.73
2019-05-07T22:55:32.500Z,20.68
2019-05-07T22:58:39.126Z,22.58
2019-05-07T23:01:27.247Z,21.80
2019-05-07T23:04:15.377Z,21.25
2019-05-07T23:07:04.204Z,21.85
2019-05-07T23:13:01.895Z,21.20
2019-05-07T23:15:51.761Z,20.55
2019-05-07T23:18:31.885Z,21.05
2019-05-07T23:21:24.045Z,20.45
2019-05-07T23:24:09.810Z,21.65
2019-05-07T23:26:57.950Z,20.82
2019-05-07T23:29:46.395Z,21.82
2019-05-07T23:32:34.475Z,22.10
2019-05-07T23:35:22.581Z,20.50
2019-05-07T23:38:12.205Z,21.37
2019-05-07T23:41:19.438Z,20.50
2019-05-07T23:44:26.594Z,21.15
2019-05-07T23:47:14.646Z,22.45
2019-05-07T23:53:17.287Z,22.52
2019-05-07T23:56:05.264Z,22.55
2019-05-07T23:58:53.258Z,22.90
